PWSweather.com
Personal Weather Stations
Station Observations
SHAHALMS1
Eftra, Falkenberg, HA

EftraFalkenberg, HA

Lat: 56.85, Lon: 12.65

Elevation: 140

Station Type:

http://hem.passagen.se/risarp101

High Low Average
Temperature 55.9°F13.3°C 37.9°F3.3°C 48.5°F9.2°C
Dew Point 43.9°F6.6°C 26.5°F-3.1°C 36.4°F2.4°C
Winds 10.5 mph 16.9 kmh Calm Calm 3.0 mph S4.8 kmh S
Wind Gusts 17.2 mph27.7 kmh -- 6.0 mph9.7 kmh
Humidity 71% 53% 63%
Pressure 30.48 in1032.2 mb 30.27 in1025.1 mb -
Precipitation 0.00 in0.0 mm - -
Hour Temp Dew Point Humidity Winds Wind Gusts Pressure Precip Precip Rate Daily Precip Total
12:00 AM 40.5°F4.7°C 26.8°F-2.9°C 58% Calm Calm -- 30.27 in1025.1 mb 0.00 in0.0 mm 0.00 in0.0 mm 0.00 in0.0 mm
12:15 AM 40.1°F4.5°C 26.5°F-3.1°C 58% Calm Calm -- 30.27 in1025.1 mb 0.00 in0.0 mm 0.00 in0.0 mm 0.00 in0.0 mm
12:30 AM 39.7°F4.3°C 27.0°F-2.8°C 60% 1.1 mph W1.8 kmh W 4.7 mph7.6 kmh 30.27 in1025.1 mb 0.00 in0.0 mm 0.00 in0.0 mm 0.00 in0.0 mm
12:45 AM 41.0°F5.0°C 28.6°F-1.9°C 61% 0.4 mph W0.6 kmh W 4.3 mph6.9 kmh 30.27 in1025.1 mb 0.00 in0.0 mm 0.00 in0.0 mm 0.00 in0.0 mm
01:00 AM 41.4°F5.2°C 29.3°F-1.5°C 62% Calm Calm -- 30.27 in1025.1 mb 0.00 in0.0 mm 0.00 in0.0 mm 0.00 in0.0 mm
01:15 AM 41.5°F5.3°C 29.5°F-1.4°C 62% Calm Calm -- 30.27 in1025.1 mb 0.00 in0.0 mm 0.00 in0.0 mm 0.00 in0.0 mm
01:30 AM 41.7°F5.4°C 29.6°F-1.3°C 62% 0.7 mph W1.1 kmh W 5.7 mph9.2 kmh 30.27 in1025.1 mb 0.00 in0.0 mm 0.00 in0.0 mm 0.00 in0.0 mm
01:45 AM 42.1°F5.6°C 30.0°F-1.1°C 62% 1.9 mph W3.1 kmh W 5.7 mph9.2 kmh 30.27 in1025.1 mb 0.00 in0.0 mm 0.00 in0.0 mm 0.00 in0.0 mm
02:00 AM 42.4°F5.8°C 30.7°F-0.7°C 63% Calm Calm -- 30.27 in1025.1 mb 0.00 in0.0 mm 0.00 in0.0 mm 0.00 in0.0 mm
02:15 AM 42.1°F5.6°C 30.4°F-0.9°C 63% 0.1 mph NE0.2 kmh NE 1.4 mph2.3 kmh 30.27 in1025.1 mb 0.00 in0.0 mm 0.00 in0.0 mm 0.00 in0.0 mm
02:30 AM 41.2°F5.1°C 29.9°F-1.2°C 64% Calm Calm -- 30.27 in1025.1 mb 0.00 in0.0 mm 0.00 in0.0 mm 0.00 in0.0 mm
02:45 AM 40.8°F4.9°C 30.0°F-1.1°C 65% 0.1 mph E0.2 kmh E 2.5 mph4.0 kmh 30.27 in1025.1 mb 0.00 in0.0 mm 0.00 in0.0 mm 0.00 in0.0 mm
03:00 AM 41.2°F5.1°C 30.7°F-0.7°C 66% Calm Calm 2.1 mph3.4 kmh 30.27 in1025.1 mb 0.00 in0.0 mm 0.00 in0.0 mm 0.00 in0.0 mm
03:15 AM 40.6°F4.8°C 29.8°F-1.2°C 65% Calm Calm -- 30.30 in1026.1 mb 0.00 in0.0 mm 0.00 in0.0 mm 0.00 in0.0 mm
03:30 AM 40.3°F4.6°C 29.8°F-1.2°C 66% Calm Calm -- 30.27 in1025.1 mb 0.00 in0.0 mm 0.00 in0.0 mm 0.00 in0.0 mm
03:45 AM 40.3°F4.6°C 29.8°F-1.2°C 66% Calm Calm -- 30.30 in1026.1 mb 0.00 in0.0 mm 0.00 in0.0 mm 0.00 in0.0 mm
04:00 AM 40.3°F4.6°C 29.8°F-1.2°C 66% Calm Calm -- 30.30 in1026.1 mb 0.00 in0.0 mm 0.00 in0.0 mm 0.00 in0.0 mm
04:15 AM 40.3°F4.6°C 29.8°F-1.2°C 66% 0.7 mph SSE1.1 kmh SSE 7.5 mph12.1 kmh 30.30 in1026.1 mb 0.00 in0.0 mm 0.00 in0.0 mm 0.00 in0.0 mm
04:31 AM 39.9°F4.4°C 29.8°F-1.2°C 67% Calm Calm -- 30.30 in1026.1 mb 0.00 in0.0 mm 0.00 in0.0 mm 0.00 in0.0 mm
04:45 AM 39.7°F4.3°C 30.0°F-1.1°C 68% Calm Calm -- 30.33 in1027.1 mb 0.00 in0.0 mm 0.00 in0.0 mm 0.00 in0.0 mm
05:00 AM 39.2°F4.0°C 29.2°F-1.6°C 67% 0.7 mph W1.1 kmh W 4.7 mph7.6 kmh 30.33 in1027.1 mb 0.00 in0.0 mm 0.00 in0.0 mm 0.00 in0.0 mm
05:15 AM 38.3°F3.5°C 28.3°F-2.1°C 67% 0.1 mph W0.2 kmh W 4.3 mph6.9 kmh 30.30 in1026.1 mb 0.00 in0.0 mm 0.00 in0.0 mm 0.00 in0.0 mm
05:30 AM 37.9°F3.3°C 28.7°F-1.8°C 69% 0.5 mph WSW0.8 kmh WSW 3.6 mph5.8 kmh 30.33 in1027.1 mb 0.00 in0.0 mm 0.00 in0.0 mm 0.00 in0.0 mm
05:45 AM 38.1°F3.4°C 28.8°F-1.8°C 69% Calm Calm -- 30.33 in1027.1 mb 0.00 in0.0 mm 0.00 in0.0 mm 0.00 in0.0 mm
06:00 AM 37.9°F3.3°C 28.7°F-1.8°C 69% Calm Calm -- 30.33 in1027.1 mb 0.00 in0.0 mm 0.00 in0.0 mm 0.00 in0.0 mm
06:15 AM 38.1°F3.4°C 28.8°F-1.8°C 69% Calm Calm -- 30.36 in1028.1 mb 0.00 in0.0 mm 0.00 in0.0 mm 0.00 in0.0 mm
06:30 AM 38.3°F3.5°C 29.0°F-1.7°C 69% Calm Calm -- 30.33 in1027.1 mb 0.00 in0.0 mm 0.00 in0.0 mm 0.00 in0.0 mm
06:45 AM 38.7°F3.7°C 29.4°F-1.4°C 69% Calm Calm -- 30.36 in1028.1 mb 0.00 in0.0 mm 0.00 in0.0 mm 0.00 in0.0 mm
07:00 AM 39.2°F4.0°C 29.5°F-1.4°C 68% Calm Calm -- 30.36 in1028.1 mb 0.00 in0.0 mm 0.00 in0.0 mm 0.00 in0.0 mm
07:15 AM 39.2°F4.0°C 29.9°F-1.2°C 69% Calm Calm -- 30.39 in1029.1 mb 0.00 in0.0 mm 0.00 in0.0 mm 0.00 in0.0 mm
07:30 AM 39.4°F4.1°C 30.4°F-0.9°C 70% Calm Calm -- 30.39 in1029.1 mb 0.00 in0.0 mm 0.00 in0.0 mm 0.00 in0.0 mm
07:45 AM 40.1°F4.5°C 31.4°F-0.3°C 71% Calm Calm -- 30.39 in1029.1 mb 0.00 in0.0 mm 0.00 in0.0 mm 0.00 in0.0 mm
08:00 AM 41.4°F5.2°C 32.7°F0.4°C 71% Calm Calm -- 30.39 in1029.1 mb 0.00 in0.0 mm 0.00 in0.0 mm 0.00 in0.0 mm
08:15 AM 42.3°F5.7°C 33.5°F0.8°C 71% Calm Calm -- 30.39 in1029.1 mb 0.00 in0.0 mm 0.00 in0.0 mm 0.00 in0.0 mm
08:30 AM 43.0°F6.1°C 33.9°F1.1°C 70% Calm Calm -- 30.39 in1029.1 mb 0.00 in0.0 mm 0.00 in0.0 mm 0.00 in0.0 mm
08:45 AM 43.9°F6.6°C 34.4°F1.3°C 69% 0.1 mph E0.2 kmh E 3.6 mph5.8 kmh 30.39 in1029.1 mb 0.00 in0.0 mm 0.00 in0.0 mm 0.00 in0.0 mm
09:00 AM 44.6°F7.0°C 34.7°F1.5°C 68% Calm Calm -- 30.39 in1029.1 mb 0.00 in0.0 mm 0.00 in0.0 mm 0.00 in0.0 mm
09:15 AM 45.5°F7.5°C 35.2°F1.8°C 67% Calm Calm -- 30.42 in1030.1 mb 0.00 in0.0 mm 0.00 in0.0 mm 0.00 in0.0 mm
09:30 AM 46.8°F8.2°C 36.4°F2.4°C 67% Calm Calm -- 30.42 in1030.1 mb 0.00 in0.0 mm 0.00 in0.0 mm 0.00 in0.0 mm
09:45 AM 47.8°F8.8°C 37.0°F2.8°C 66% 0.2 mph W0.3 kmh W 3.9 mph6.3 kmh 30.42 in1030.1 mb 0.00 in0.0 mm 0.00 in0.0 mm 0.00 in0.0 mm
10:00 AM 48.9°F9.4°C 37.3°F2.9°C 64% 1.5 mph WSW2.4 kmh WSW 6.8 mph10.9 kmh 30.42 in1030.1 mb 0.00 in0.0 mm 0.00 in0.0 mm 0.00 in0.0 mm
10:15 AM 50.0°F10.0°C 37.9°F3.3°C 63% 1.6 mph NW2.6 kmh NW 7.5 mph12.1 kmh 30.45 in1031.2 mb 0.00 in0.0 mm 0.00 in0.0 mm 0.00 in0.0 mm
10:30 AM 50.9°F10.5°C 38.3°F3.5°C 62% 2.4 mph W3.9 kmh W 7.5 mph12.1 kmh 30.45 in1031.2 mb 0.00 in0.0 mm 0.00 in0.0 mm 0.00 in0.0 mm
10:45 AM 51.8°F11.0°C 38.8°F3.8°C 61% 3.0 mph W4.8 kmh W 9.7 mph15.6 kmh 30.45 in1031.2 mb 0.00 in0.0 mm 0.00 in0.0 mm 0.00 in0.0 mm
11:00 AM 52.3°F11.3°C 39.3°F4.1°C 61% 3.0 mph W4.8 kmh W 11.8 mph19.0 kmh 30.48 in1032.2 mb 0.00 in0.0 mm 0.00 in0.0 mm 0.00 in0.0 mm
11:15 AM 52.9°F11.6°C 39.8°F4.3°C 61% 2.4 mph WNW3.9 kmh WNW 6.8 mph10.9 kmh 30.45 in1031.2 mb 0.00 in0.0 mm 0.00 in0.0 mm 0.00 in0.0 mm
11:30 AM 53.1°F11.7°C 39.1°F3.9°C 59% 4.8 mph W7.7 kmh W 16.1 mph25.9 kmh 30.45 in1031.2 mb 0.00 in0.0 mm 0.00 in0.0 mm 0.00 in0.0 mm
11:45 AM 53.2°F11.8°C 38.4°F3.6°C 57% 6.0 mph W9.7 kmh W 16.5 mph26.6 kmh 30.45 in1031.2 mb 0.00 in0.0 mm 0.00 in0.0 mm 0.00 in0.0 mm
12:00 PM 53.2°F11.8°C 37.5°F3.1°C 55% 5.6 mph W9.0 kmh W 13.6 mph21.9 kmh 30.45 in1031.2 mb 0.00 in0.0 mm 0.00 in0.0 mm 0.00 in0.0 mm
12:15 PM 53.6°F12.0°C 37.8°F3.2°C 55% 4.5 mph WSW7.2 kmh WSW 12.2 mph19.6 kmh 30.45 in1031.2 mb 0.00 in0.0 mm 0.00 in0.0 mm 0.00 in0.0 mm
12:45 PM 53.8°F12.1°C 37.0°F2.8°C 53% 6.7 mph W10.8 kmh W 17.2 mph27.7 kmh 30.45 in1031.2 mb 0.00 in0.0 mm 0.00 in0.0 mm 0.00 in0.0 mm
01:00 PM 54.1°F12.3°C 37.8°F3.2°C 54% 5.4 mph W8.7 kmh W 15.7 mph25.3 kmh 30.45 in1031.2 mb 0.00 in0.0 mm 0.00 in0.0 mm 0.00 in0.0 mm
01:15 PM 54.5°F12.5°C 38.2°F3.4°C 54% 4.4 mph W7.1 kmh W 11.8 mph19.0 kmh 30.45 in1031.2 mb 0.00 in0.0 mm 0.00 in0.0 mm 0.00 in0.0 mm
01:30 PM 54.5°F12.5°C 38.2°F3.4°C 54% 6.0 mph WNW9.7 kmh WNW 16.1 mph25.9 kmh 30.45 in1031.2 mb 0.00 in0.0 mm 0.00 in0.0 mm 0.00 in0.0 mm
01:45 PM 55.0°F12.8°C 38.7°F3.7°C 54% 4.4 mph W7.1 kmh W 12.2 mph19.6 kmh 30.45 in1031.2 mb 0.00 in0.0 mm 0.00 in0.0 mm 0.00 in0.0 mm
02:52 PM 55.0°F12.8°C 38.7°F3.7°C 54% 10.5 mph NW16.9 kmh NW 12.9 mph20.8 kmh 30.45 in1031.2 mb 0.00 in0.0 mm 0.00 in0.0 mm 0.00 in0.0 mm
03:02 PM 55.4°F13.0°C 39.5°F4.2°C 55% 4.1 mph NW6.6 kmh NW 5.0 mph8.0 kmh 30.45 in1031.2 mb 0.00 in0.0 mm 0.00 in0.0 mm 0.00 in0.0 mm
03:12 PM 55.4°F13.0°C 39.5°F4.2°C 55% 4.4 mph W7.1 kmh W 5.4 mph8.7 kmh 30.45 in1031.2 mb 0.00 in0.0 mm 0.00 in0.0 mm 0.00 in0.0 mm
03:22 PM 55.6°F13.1°C 40.1°F4.5°C 56% 8.6 mph NW13.8 kmh NW 15.7 mph25.3 kmh 30.45 in1031.2 mb 0.00 in0.0 mm 0.00 in0.0 mm 0.00 in0.0 mm
03:32 PM 55.4°F13.0°C 40.0°F4.4°C 56% 9.3 mph W15.0 kmh W 11.5 mph18.5 kmh 30.45 in1031.2 mb 0.00 in0.0 mm 0.00 in0.0 mm 0.00 in0.0 mm
03:42 PM 55.4°F13.0°C 40.0°F4.4°C 56% 3.5 mph W5.6 kmh W 4.3 mph6.9 kmh 30.45 in1031.2 mb 0.00 in0.0 mm 0.00 in0.0 mm 0.00 in0.0 mm
03:52 PM 55.4°F13.0°C 40.4°F4.7°C 57% 6.1 mph W9.8 kmh W 7.5 mph12.1 kmh 30.45 in1031.2 mb 0.00 in0.0 mm 0.00 in0.0 mm 0.00 in0.0 mm
04:02 PM 55.9°F13.3°C 41.4°F5.2°C 58% 5.2 mph NW8.4 kmh NW 6.4 mph10.3 kmh 30.45 in1031.2 mb 0.00 in0.0 mm 0.00 in0.0 mm 0.00 in0.0 mm
04:12 PM 55.8°F13.2°C 41.2°F5.1°C 58% 4.9 mph W7.9 kmh W 6.1 mph9.8 kmh 30.45 in1031.2 mb 0.00 in0.0 mm 0.00 in0.0 mm 0.00 in0.0 mm
04:22 PM 55.8°F13.2°C 41.2°F5.1°C 58% 5.2 mph W8.4 kmh W 6.4 mph10.3 kmh 30.45 in1031.2 mb 0.00 in0.0 mm 0.00 in0.0 mm 0.00 in0.0 mm
04:32 PM 55.4°F13.0°C 40.9°F4.9°C 58% 6.4 mph W10.3 kmh W 7.9 mph12.7 kmh 30.42 in1030.1 mb 0.00 in0.0 mm 0.00 in0.0 mm 0.00 in0.0 mm
04:42 PM 54.9°F12.7°C 40.8°F4.9°C 59% 7.3 mph W11.7 kmh W 8.9 mph14.3 kmh 30.42 in1030.1 mb 0.00 in0.0 mm 0.00 in0.0 mm 0.00 in0.0 mm
04:52 PM 54.9°F12.7°C 41.2°F5.1°C 60% 6.7 mph W10.8 kmh W 8.9 mph14.3 kmh 30.42 in1030.1 mb 0.00 in0.0 mm 0.00 in0.0 mm 0.00 in0.0 mm
05:02 PM 54.7°F12.6°C 41.1°F5.1°C 60% 1.5 mph W2.4 kmh W 1.8 mph2.9 kmh 30.42 in1030.1 mb 0.00 in0.0 mm 0.00 in0.0 mm 0.00 in0.0 mm
05:12 PM 54.3°F12.4°C 40.7°F4.8°C 60% 1.2 mph W1.9 kmh W 1.4 mph2.3 kmh 30.42 in1030.1 mb 0.00 in0.0 mm 0.00 in0.0 mm 0.00 in0.0 mm
05:22 PM 54.1°F12.3°C 41.0°F5.0°C 61% 4.9 mph NW7.9 kmh NW 6.1 mph9.8 kmh 30.42 in1030.1 mb 0.00 in0.0 mm 0.00 in0.0 mm 0.00 in0.0 mm
05:32 PM 53.8°F12.1°C 40.6°F4.8°C 61% 4.4 mph W7.1 kmh W 5.4 mph8.7 kmh 30.42 in1030.1 mb 0.00 in0.0 mm 0.00 in0.0 mm 0.00 in0.0 mm
05:42 PM 53.6°F12.0°C 40.9°F4.9°C 62% 7.3 mph W11.7 kmh W 8.9 mph14.3 kmh 30.42 in1030.1 mb 0.00 in0.0 mm 0.00 in0.0 mm 0.00 in0.0 mm
05:52 PM 53.4°F11.9°C 40.7°F4.8°C 62% 4.7 mph W7.6 kmh W 5.7 mph9.2 kmh 30.42 in1030.1 mb 0.00 in0.0 mm 0.00 in0.0 mm 0.00 in0.0 mm
06:02 PM 53.2°F11.8°C 40.5°F4.7°C 62% Calm Calm -- 30.39 in1029.1 mb 0.00 in0.0 mm 0.00 in0.0 mm 0.00 in0.0 mm
06:12 PM 53.1°F11.7°C 40.4°F4.7°C 62% 6.1 mph W9.8 kmh W 7.5 mph12.1 kmh 30.39 in1029.1 mb 0.00 in0.0 mm 0.00 in0.0 mm 0.00 in0.0 mm
06:22 PM 52.7°F11.5°C 40.0°F4.4°C 62% 4.7 mph W7.6 kmh W 7.5 mph12.1 kmh 30.39 in1029.1 mb 0.00 in0.0 mm 0.00 in0.0 mm 0.00 in0.0 mm
06:32 PM 52.3°F11.3°C 39.7°F4.3°C 62% 7.6 mph W12.2 kmh W 9.3 mph15.0 kmh 30.39 in1029.1 mb 0.00 in0.0 mm 0.00 in0.0 mm 0.00 in0.0 mm
06:42 PM 52.0°F11.1°C 39.4°F4.1°C 62% 5.5 mph W8.9 kmh W 6.8 mph10.9 kmh 30.39 in1029.1 mb 0.00 in0.0 mm 0.00 in0.0 mm 0.00 in0.0 mm
06:46 PM 52.0°F11.1°C 39.4°F4.1°C 62% 1.7 mph W2.7 kmh W 2.1 mph3.4 kmh 30.39 in1029.1 mb 0.00 in0.0 mm 0.00 in0.0 mm 0.00 in0.0 mm
06:47 PM 52.0°F11.1°C 39.4°F4.1°C 62% 4.9 mph W7.9 kmh W 6.1 mph9.8 kmh 30.39 in1029.1 mb 0.00 in0.0 mm 0.00 in0.0 mm 0.00 in0.0 mm
06:52 PM 52.0°F11.1°C 39.4°F4.1°C 62% 1.2 mph W1.9 kmh W 1.4 mph2.3 kmh 30.36 in1028.1 mb 0.00 in0.0 mm 0.00 in0.0 mm 0.00 in0.0 mm
07:00 PM 51.8°F11.0°C 38.8°F3.8°C 61% 3.4 mph W5.5 kmh W 9.7 mph15.6 kmh 30.39 in1029.1 mb 0.00 in0.0 mm 0.00 in0.0 mm 0.00 in0.0 mm
07:15 PM 51.6°F10.9°C 38.6°F3.7°C 61% 5.6 mph W9.0 kmh W 9.7 mph15.6 kmh 30.39 in1029.1 mb 0.00 in0.0 mm 0.00 in0.0 mm 0.00 in0.0 mm
07:30 PM 51.8°F11.0°C 38.8°F3.8°C 61% 5.6 mph W9.0 kmh W 9.7 mph15.6 kmh 30.36 in1028.1 mb 0.00 in0.0 mm 0.00 in0.0 mm 0.00 in0.0 mm
07:45 PM 52.3°F11.3°C 39.7°F4.3°C 62% 4.6 mph W7.4 kmh W 9.7 mph15.6 kmh 30.36 in1028.1 mb 0.00 in0.0 mm 0.00 in0.0 mm 0.00 in0.0 mm
08:00 PM 52.5°F11.4°C 39.9°F4.4°C 62% 4.9 mph W7.9 kmh W 7.9 mph12.7 kmh 30.36 in1028.1 mb 0.00 in0.0 mm 0.00 in0.0 mm 0.00 in0.0 mm
08:15 PM 52.9°F11.6°C 40.2°F4.6°C 62% 6.2 mph W10.0 kmh W 10.4 mph16.7 kmh 30.36 in1028.1 mb 0.00 in0.0 mm 0.00 in0.0 mm 0.00 in0.0 mm
08:30 PM 52.9°F11.6°C 40.6°F4.8°C 63% 4.8 mph W7.7 kmh W 7.9 mph12.7 kmh 30.36 in1028.1 mb 0.00 in0.0 mm 0.00 in0.0 mm 0.00 in0.0 mm
08:45 PM 53.1°F11.7°C 41.2°F5.1°C 64% 6.2 mph WNW10.0 kmh WNW 7.9 mph12.7 kmh 30.36 in1028.1 mb 0.00 in0.0 mm 0.00 in0.0 mm 0.00 in0.0 mm
09:00 PM 52.9°F11.6°C 41.0°F5.0°C 64% 4.0 mph W6.4 kmh W 7.9 mph12.7 kmh 30.36 in1028.1 mb 0.00 in0.0 mm 0.00 in0.0 mm 0.00 in0.0 mm
09:15 PM 52.9°F11.6°C 41.4°F5.2°C 65% 3.8 mph W6.1 kmh W 4.7 mph7.6 kmh 30.33 in1027.1 mb 0.00 in0.0 mm 0.00 in0.0 mm 0.00 in0.0 mm
09:30 PM 52.9°F11.6°C 42.2°F5.7°C 67% 8.3 mph WNW13.4 kmh WNW 12.2 mph19.6 kmh 30.33 in1027.1 mb 0.00 in0.0 mm 0.00 in0.0 mm 0.00 in0.0 mm
09:45 PM 52.9°F11.6°C 42.6°F5.9°C 68% 8.4 mph W13.5 kmh W 12.5 mph20.1 kmh 30.30 in1026.1 mb 0.00 in0.0 mm 0.00 in0.0 mm 0.00 in0.0 mm
10:00 PM 52.7°F11.5°C 42.0°F5.6°C 67% 6.0 mph W9.7 kmh W 9.3 mph15.0 kmh 30.33 in1027.1 mb 0.00 in0.0 mm 0.00 in0.0 mm 0.00 in0.0 mm
10:15 PM 52.7°F11.5°C 42.4°F5.8°C 68% 4.9 mph W7.9 kmh W 6.1 mph9.8 kmh 30.33 in1027.1 mb 0.00 in0.0 mm 0.00 in0.0 mm 0.00 in0.0 mm
10:30 PM 52.7°F11.5°C 42.8°F6.0°C 69% 4.9 mph W7.9 kmh W 6.1 mph9.8 kmh 30.33 in1027.1 mb 0.00 in0.0 mm 0.00 in0.0 mm 0.00 in0.0 mm
10:45 PM 52.7°F11.5°C 43.2°F6.2°C 70% 6.8 mph W10.9 kmh W 10.0 mph16.1 kmh 30.33 in1027.1 mb 0.00 in0.0 mm 0.00 in0.0 mm 0.00 in0.0 mm
11:00 PM 52.9°F11.6°C 43.4°F6.3°C 70% 9.4 mph W15.1 kmh W 12.2 mph19.6 kmh 30.30 in1026.1 mb 0.00 in0.0 mm 0.00 in0.0 mm 0.00 in0.0 mm
11:15 PM 53.1°F11.7°C 43.9°F6.6°C 71% 5.5 mph WSW8.9 kmh WSW 7.2 mph11.6 kmh 30.30 in1026.1 mb 0.00 in0.0 mm 0.00 in0.0 mm 0.00 in0.0 mm
11:30 PM 53.2°F11.8°C 43.3°F6.3°C 69% 5.8 mph W9.3 kmh W 7.2 mph11.6 kmh 30.30 in1026.1 mb 0.00 in0.0 mm 0.00 in0.0 mm 0.00 in0.0 mm
11:45 PM 53.1°F11.7°C 43.2°F6.2°C 69% 7.0 mph W11.3 kmh W 8.6 mph13.8 kmh 30.30 in1026.1 mb 0.00 in0.0 mm 0.00 in0.0 mm 0.00 in0.0 mm